Home   Weather   Germany   Gummersbach   Past weeks
Flag for Germany

Past Weather in Gummersbach, North Rhine-Westphalia, Germany — Yesterday and Last 2 Weeks

Currently: 63 °F. Passing clouds. (Weather station: Koeln / Bonn, Germany). See more current weather

Past Weather in Gummersbach — Graph

°F

Gummersbach Temperature Yesterday

Maximum temperature yesterday: 68 °F (at 4:50 pm)
Minimum temperature yesterday: 57 °F (at 4:20 am)
Average temperature yesterday: 62 °F

High & Low Weather Summary for the Past Weeks

 TemperatureHumidityPressure
High72 °F (Jun 4, 4:50 pm)100% (Jun 1, 9:20 am)30.18 "Hg (Jun 1, 9:20 am)
Low43 °F (Jun 7, 6:20 am)35% (Jun 6, 5:50 pm)29.56 "Hg (Jun 15, 4:50 am)
Average58 °F72%29.95 "Hg
* Reported Jun 1 9:20 am — Jun 16 9:50 am, Gummersbach. Weather by CustomWeather, © 2024

Note: Actual official high and low records may vary slightly from our data, if they occured in-between our weather recording intervals... More about our weather records

Gummersbach Weather History for the Previous 24 Hours

Scroll right to see more
 ConditionsComfort  
Time TempWeatherWind HumidityBarometerVisibility
9:50 am
Sun, Jun 16
63 °FPassing clouds.14 mph64%29.77 "HgN/A
9:20 am61 °FPassing clouds.15 mph68%29.77 "HgN/A
8:20 am61 °FPassing clouds.10 mph68%29.77 "HgN/A
6:50 am57 °FSunny.10 mph77%29.77 "Hg10 mi
6:20 am57 °FSunny.9 mph72%29.77 "Hg10 mi
5:50 am57 °FSunny.9 mph72%29.77 "Hg10 mi
5:20 am57 °FPassing clouds.9 mph72%29.77 "HgN/A
4:50 am57 °FClear.9 mph72%29.77 "Hg10 mi
4:20 am59 °FClear.9 mph68%29.77 "Hg10 mi
3:50 am55 °FClear.6 mph77%29.74 "Hg10 mi
3:20 am57 °FClear.8 mph72%29.74 "Hg10 mi
2:50 am57 °FClear.8 mph72%29.74 "Hg10 mi
2:20 am59 °FClear.9 mph68%29.77 "Hg10 mi
1:50 am59 °FClear.6 mph68%29.77 "Hg10 mi
1:20 am59 °FClear.7 mph68%29.77 "Hg10 mi
12:50 am59 °FClear.6 mph68%29.77 "Hg10 mi
12:20 am59 °FClear.6 mph68%29.77 "Hg10 mi
11:50 pm
Sat, Jun 15
61 °FLight rain. Clear.6 mph63%29.80 "HgN/A
11:20 pm61 °FPassing clouds.8 mph59%29.77 "HgN/A
10:50 pm61 °FClear.9 mph59%29.77 "Hg10 mi
10:20 pm59 °FClear.7 mph68%29.77 "Hg10 mi
9:50 pm61 °FLight rain. Clear.8 mph59%29.77 "HgN/A
9:20 pm63 °FPassing clouds.9 mph52%29.77 "HgN/A
8:50 pm63 °FPassing clouds.8 mph49%29.77 "HgN/A
8:20 pm64 °FSunny.12 mph46%29.77 "Hg10 mi
7:50 pm64 °FPassing clouds.18 mph46%29.77 "HgN/A
7:20 pm66 °FSunny.15 mph43%29.74 "Hg10 mi
6:50 pm66 °FSunny.16 mph43%29.74 "Hg10 mi
6:20 pm66 °FPassing clouds.16 mph43%29.74 "HgN/A
5:50 pm66 °FPassing clouds.17 mph43%29.74 "HgN/A
5:20 pm66 °FSunny.18 mph46%29.74 "Hg10 mi
4:50 pm68 °FSunny.15 mph40%29.74 "Hg10 mi
3:20 pm66 °FPassing clouds.16 mph43%29.74 "HgN/A
2:50 pm66 °FPassing clouds.15 mph46%29.74 "HgN/A
2:20 pm66 °FPassing clouds.16 mph49%29.74 "HgN/A
1:50 pm66 °FPassing clouds.18 mph46%29.74 "HgN/A
12:50 pm64 °FSunny.17 mph49%29.74 "Hg10 mi
12:20 pm64 °FScattered clouds.23 mph49%29.74 "HgN/A
11:20 am61 °FBroken clouds.21 mph59%29.74 "HgN/A
10:20 am59 °FPartly sunny.24 mph59%29.71 "HgN/A
Weather by CustomWeather, © 2024

See weather overview